Time;durP1;ratioP1;P1;durP2;ratioP2;P2;SDS_P1;SDS_P2;PMS_P1;PMS_P2;Temp;Humidity;BMP_temperature;BMP_pressure;BME280_temperature;BME280_humidity;BME280_pressure;Samples;Min_cycle;Max_cycle;Signal;HPM_P1;HPM_P2
2024/01/07 00:01:16;;;;;;;0.60;0.60;;;;;;;10.05;100.00;94043.66;5133242;27;20443;-55
2024/01/07 00:03:46;;;;;;;0.50;0.50;;;;;;;10.05;100.00;94033.09;5133459;27;20809;-55
2024/01/07 00:06:14;;;;;;;0.70;0.70;;;;;;;10.19;100.00;94023.31;5132615;27;20946;-55
2024/01/07 00:08:43;;;;;;;3.40;3.20;;;;;;;10.26;100.00;94002.50;5132895;27;20854;-55
2024/01/07 00:11:11;;;;;;;0.50;0.50;;;;;;;10.19;100.00;94018.00;5132531;27;21156;-55
2024/01/07 00:13:40;;;;;;;0.83;0.83;;;;;;;10.23;100.00;93981.91;5133101;27;20505;-55
2024/01/07 00:16:08;;;;;;;1.80;0.90;;;;;;;10.32;100.00;94000.53;5132285;27;20474;-55
2024/01/07 00:18:37;;;;;;;0.50;0.50;;;;;;;10.18;100.00;93982.81;5132671;27;20442;-55
2024/01/07 00:21:07;;;;;;;0.90;0.90;;;;;;;10.21;100.00;93978.78;5133047;27;20812;-55
2024/01/07 00:23:36;;;;;;;0.60;0.40;;;;;;;10.09;100.00;93973.19;5132878;27;20491;-55
2024/01/07 00:26:05;;;;;;;1.37;1.37;;;;;;;10.25;100.00;93960.41;5132734;27;20437;-56
2024/01/07 00:28:33;;;;;;;1.30;1.20;;;;;;;10.34;100.00;93953.34;5132928;27;20818;-55
2024/01/07 00:31:02;;;;;;;0.80;0.60;;;;;;;10.19;100.00;93928.75;5132753;27;20834;-56
2024/01/07 00:33:32;;;;;;;0.60;0.47;;;;;;;10.19;100.00;93944.63;5132354;27;20491;-56
2024/01/07 00:36:01;;;;;;;1.00;1.00;;;;;;;10.23;100.00;93926.31;5132211;27;20493;-56
2024/01/07 00:38:31;;;;;;;0.67;0.67;;;;;;;10.12;100.00;93917.00;5132249;27;20962;-55
2024/01/07 00:41:00;;;;;;;1.40;0.87;;;;;;;10.22;100.00;93902.78;5132278;27;20478;-56
2024/01/07 00:43:28;;;;;;;0.50;0.40;;;;;;;10.30;100.00;93884.28;5132820;27;20507;-56
2024/01/07 00:45:57;;;;;;;1.10;1.07;;;;;;;10.17;100.00;93904.44;5132963;27;20495;-56
2024/01/07 00:48:25;;;;;;;0.60;0.57;;;;;;;10.20;100.00;93877.38;5132068;27;20437;-55
2024/01/07 00:50:55;;;;;;;0.77;0.77;;;;;;;10.27;100.00;93882.25;5132736;27;20533;-54
2024/01/07 00:53:23;;;;;;;2.03;0.60;;;;;;;10.28;100.00;93872.44;5131612;27;20477;-55
2024/01/07 00:55:53;;;;;;;2.00;1.43;;;;;;;10.27;100.00;93852.34;5132588;27;20470;-55
2024/01/07 00:58:22;;;;;;;1.33;0.80;;;;;;;10.15;100.00;93847.59;5131975;27;20495;-55
2024/01/07 01:00:50;;;;;;;1.03;0.60;;;;;;;10.28;100.00;93841.44;5131730;27;20448;-55
2024/01/07 01:03:19;;;;;;;1.43;1.10;;;;;;;10.35;100.00;93830.44;5132498;28;20438;-55
2024/01/07 01:05:48;;;;;;;1.07;1.07;;;;;;;10.49;100.00;93823.19;5132144;28;20434;-54
2024/01/07 01:08:17;;;;;;;0.70;0.70;;;;;;;10.54;100.00;93807.94;5131557;28;20488;-55
2024/01/07 01:10:45;;;;;;;0.60;0.53;;;;;;;10.43;100.00;93800.56;5131658;28;20440;-55
2024/01/07 01:13:15;;;;;;;0.77;0.77;;;;;;;10.40;100.00;93806.47;5132519;27;20519;-55
2024/01/07 01:15:44;;;;;;;0.40;0.27;;;;;;;10.37;100.00;93780.59;5132061;28;20438;-55
2024/01/07 01:18:12;;;;;;;0.40;0.30;;;;;;;10.43;100.00;93800.56;5132517;27;20438;-55
2024/01/07 01:20:41;;;;;;;0.80;0.80;;;;;;;10.48;100.00;93776.59;5132837;27;20507;-54
2024/01/07 01:23:10;;;;;;;0.40;0.30;;;;;;;10.50;100.00;93774.44;5136166;27;20445;-54
2024/01/07 01:25:39;;;;;;;0.40;0.30;;;;;;;10.55;100.00;93756.50;5135398;27;20438;-54
2024/01/07 01:28:08;;;;;;;0.80;0.60;;;;;;;10.51;100.00;93762.75;5135668;27;20487;-54
2024/01/07 01:30:38;;;;;;;0.53;0.53;;;;;;;10.59;100.00;93757.47;5135539;27;20922;-55
2024/01/07 01:33:07;;;;;;;0.43;0.40;;;;;;;10.61;100.00;93759.81;5135940;27;20449;-55
2024/01/07 01:35:36;;;;;;;0.40;0.40;;;;;;;10.19;100.00;93697.69;5135660;27;20879;-55
2024/01/07 01:38:05;;;;;;;0.50;0.30;;;;;;;10.39;100.00;93757.25;5134609;27;20989;-56
2024/01/07 01:40:34;;;;;;;0.40;0.40;;;;;;;10.37;100.00;93765.50;5136193;27;20438;-55
2024/01/07 01:43:02;;;;;;;1.10;0.60;;;;;;;10.14;100.00;93735.63;5135533;27;20426;-55
2024/01/07 01:45:31;;;;;;;2.40;0.60;;;;;;;10.35;100.00;93772.94;5134951;27;20449;-56
2024/01/07 01:48:02;;;;;;;1.80;0.70;;;;;;;10.16;100.00;93754.66;5135079;27;20513;-56
2024/01/07 01:50:31;;;;;;;2.10;0.30;;;;;;;10.01;100.00;93727.75;5135694;27;20484;-56
2024/01/07 01:52:59;;;;;;;12.07;1.17;;;;;;;10.21;100.00;93740.50;5135203;27;20469;-56
2024/01/07 01:55:28;;;;;;;0.87;0.40;;;;;;;10.25;100.00;93745.94;5135872;27;20446;-56
2024/01/07 01:57:59;;;;;;;0.40;0.30;;;;;;;9.86;100.00;93710.41;5134726;27;20505;-56
2024/01/07 02:00:28;;;;;;;0.50;0.30;;;;;;;10.01;100.00;93773.53;5136011;27;20502;-56
2024/01/07 02:02:57;;;;;;;4.23;0.60;;;;;;;9.88;100.00;93778.88;5135087;27;20441;-56
2024/01/07 02:05:28;;;;;;;0.60;0.40;;;;;;;9.90;100.00;93774.88;5135497;27;20498;-56
2024/01/07 02:10:43;;;;;;;0.70;0.40;;;;;;;10.15;100.00;93800.72;5134879;27;20434;-56
2024/01/07 02:13:11;;;;;;;0.40;0.40;;;;;;;9.96;100.00;93805.41;5135300;27;20513;-56
2024/01/07 02:15:40;;;;;;;0.60;0.30;;;;;;;9.89;100.00;93793.69;5135174;27;20438;-55
2024/01/07 02:18:09;;;;;;;0.40;0.30;;;;;;;9.69;100.00;93802.13;5134859;27;20469;-55
2024/01/07 02:20:40;;;;;;;0.50;0.30;;;;;;;9.58;100.00;93790.97;5134200;27;20443;-55
2024/01/07 02:23:09;;;;;;;0.30;0.30;;;;;;;9.71;100.00;93784.06;5134208;27;20954;-54
2024/01/07 02:25:39;;;;;;;0.30;0.20;;;;;;;9.51;100.00;93801.19;5133850;27;20513;-54
2024/01/07 02:28:08;;;;;;;0.30;0.30;;;;;;;9.63;100.00;93798.00;5134261;27;20438;-54
2024/01/07 02:30:36;;;;;;;0.40;0.40;;;;;;;9.44;100.00;93784.94;5133748;27;20478;-53
2024/01/07 02:33:05;;;;;;;0.40;0.30;;;;;;;9.69;100.00;93796.81;5133798;27;20780;-54
2024/01/07 02:35:34;;;;;;;0.30;0.20;;;;;;;9.87;100.00;93799.28;5134630;27;20434;-54
2024/01/07 02:38:03;;;;;;;0.47;0.47;;;;;;;9.85;100.00;93792.72;5135153;27;20992;-54
2024/01/07 02:40:31;;;;;;;0.30;0.20;;;;;;;9.47;100.00;93792.28;5135019;27;20942;-53
2024/01/07 02:43:01;;;;;;;0.30;0.20;;;;;;;9.14;100.00;93793.53;5134754;27;20450;-53
2024/01/07 02:45:30;;;;;;;0.30;0.20;;;;;;;8.90;100.00;93781.31;5109093;27;20446;-53
2024/01/07 02:47:58;;;;;;;0.30;0.30;;;;;;;8.69;100.00;93787.31;5133827;27;20473;-54
2024/01/07 02:50:27;;;;;;;0.70;0.40;;;;;;;8.75;100.00;93786.16;5134624;27;20434;-54
2024/01/07 02:52:56;;;;;;;0.30;0.20;;;;;;;8.84;100.00;93764.03;5134354;27;20498;-54
2024/01/07 02:55:24;;;;;;;0.30;0.20;;;;;;;8.53;100.00;93760.44;5134560;27;20468;-53
2024/01/07 02:57:53;;;;;;;0.70;0.30;;;;;;;8.60;100.00;93778.53;5134550;27;20470;-53
2024/01/07 03:00:23;;;;;;;0.30;0.27;;;;;;;8.91;100.00;93769.69;5134646;27;20467;-53
2024/01/07 03:02:52;;;;;;;0.30;0.20;;;;;;;9.20;100.00;93761.44;5133628;27;20439;-54
2024/01/07 03:05:21;;;;;;;0.40;0.40;;;;;;;9.29;100.00;93758.84;5134069;27;20462;-54
2024/01/07 03:07:50;;;;;;;0.60;0.57;;;;;;;9.21;100.00;93781.47;5134074;27;20430;-53
2024/01/07 03:10:18;;;;;;;0.50;0.40;;;;;;;9.03;100.00;93797.47;5134469;27;20495;-53
2024/01/07 03:12:47;;;;;;;0.40;0.30;;;;;;;9.22;100.00;93798.91;5133635;27;20439;-53
2024/01/07 03:15:16;;;;;;;3.03;0.20;;;;;;;9.01;100.00;93786.41;5134382;27;20832;-53
2024/01/07 03:17:46;;;;;;;0.30;0.20;;;;;;;8.90;100.00;93780.56;5133355;27;20474;-53
2024/01/07 03:20:14;;;;;;;0.30;0.20;;;;;;;8.88;100.00;93775.56;5134139;27;20430;-53
2024/01/07 03:22:43;;;;;;;0.30;0.20;;;;;;;8.98;100.00;93779.09;5133803;27;20545;-53
2024/01/07 03:25:12;;;;;;;0.30;0.20;;;;;;;9.21;100.00;93770.16;5133761;27;20953;-53
2024/01/07 03:27:41;;;;;;;0.30;0.20;;;;;;;9.35;100.00;93776.16;5107521;27;20452;-53
2024/01/07 03:30:10;;;;;;;0.30;0.20;;;;;;;9.43;100.00;93773.59;5134044;27;20439;-54
2024/01/07 03:32:39;;;;;;;0.30;0.20;;;;;;;9.38;100.00;93759.72;5133359;27;20431;-54
2024/01/07 03:35:09;;;;;;;0.30;0.20;;;;;;;9.53;100.00;93765.44;5133512;27;20442;-53
2024/01/07 03:37:39;;;;;;;7.30;0.50;;;;;;;9.18;100.00;93728.44;5133053;27;20896;-54
2024/01/07 03:40:11;;;;;;;1.63;1.40;;;;;;;9.32;100.00;93774.09;5130287;27;20440;-54
2024/01/07 03:42:40;;;;;;;6.23;3.90;;;;;;;9.48;100.00;93760.25;5124505;27;20442;-54
2024/01/07 03:45:10;;;;;;;2.93;1.00;;;;;;;9.48;100.00;93757.63;5132347;27;20440;-54
2024/01/07 03:47:38;;;;;;;0.50;0.40;;;;;;;9.47;100.00;93747.31;5134005;27;20439;-54
2024/01/07 03:50:09;;;;;;;0.30;0.20;;;;;;;8.95;100.00;93749.53;5132834;27;20503;-53
2024/01/07 03:52:38;;;;;;;0.30;0.20;;;;;;;8.92;100.00;93736.94;5132519;27;21127;-53
2024/01/07 03:55:07;;;;;;;1.90;1.80;;;;;;;8.90;100.00;93717.16;5106278;27;20804;-54
2024/01/07 03:57:36;;;;;;;0.30;0.20;;;;;;;8.86;100.00;93722.25;5133072;27;20469;-54
2024/01/07 04:00:06;;;;;;;0.50;0.30;;;;;;;8.85;100.00;93733.88;5133101;27;20521;-53
2024/01/07 04:02:34;;;;;;;0.30;0.20;;;;;;;8.81;100.00;93748.78;5130987;27;20444;-53
2024/01/07 04:05:03;;;;;;;0.60;0.30;;;;;;;8.82;100.00;93744.28;5126848;27;20440;-53
2024/01/07 04:07:33;;;;;;;0.40;0.20;;;;;;;8.71;100.00;93754.25;5131857;27;20434;-53
2024/01/07 04:10:02;;;;;;;0.70;0.70;;;;;;;8.77;100.00;93753.09;5133131;27;20435;-53
2024/01/07 04:12:31;;;;;;;0.30;0.20;;;;;;;8.70;100.00;93765.88;5132967;27;20427;-52
2024/01/07 04:14:59;;;;;;;0.30;0.20;;;;;;;8.73;100.00;93773.22;5133167;27;20478;-52
2024/01/07 04:17:28;;;;;;;0.30;0.30;;;;;;;8.73;100.00;93753.97;5132477;27;20442;-52
2024/01/07 04:19:57;;;;;;;0.30;0.20;;;;;;;8.70;100.00;93771.16;5133047;27;20499;-52
2024/01/07 04:22:25;;;;;;;2.40;2.20;;;;;;;8.82;100.00;93760.13;5132310;27;20456;-52
2024/01/07 04:24:55;;;;;;;0.40;0.40;;;;;;;8.94;100.00;93763.03;5132743;27;20957;-52
2024/01/07 04:27:24;;;;;;;0.40;0.20;;;;;;;9.00;100.00;93772.44;5132602;27;20441;-52
2024/01/07 04:29:53;;;;;;;0.40;0.20;;;;;;;9.09;100.00;93768.00;5120611;27;20503;-52
2024/01/07 04:32:22;;;;;;;1.07;0.87;;;;;;;8.93;100.00;93770.19;5131993;27;20422;-52
2024/01/07 04:34:50;;;;;;;6.53;0.77;;;;;;;9.15;100.00;93785.31;5132739;27;20517;-52
2024/01/07 04:37:19;;;;;;;0.30;0.20;;;;;;;9.31;100.00;93786.53;5131594;27;20890;-52
2024/01/07 04:39:48;;;;;;;0.30;0.20;;;;;;;9.23;100.00;93771.41;5131817;27;21006;-52
2024/01/07 04:42:18;;;;;;;0.40;0.30;;;;;;;9.05;100.00;93764.41;5132667;27;20446;-52
2024/01/07 04:44:47;;;;;;;0.30;0.20;;;;;;;9.01;100.00;93754.69;5131996;27;20434;-52
2024/01/07 04:47:27;;;;;;;0.30;0.20;;;;;;;9.10;100.00;93752.94;5132806;27;20838;-52
2024/01/07 04:49:56;;;;;;;0.40;0.40;;;;;;;9.30;100.00;93745.34;5131622;27;20467;-52
2024/01/07 04:52:25;;;;;;;0.30;0.20;;;;;;;9.05;100.00;93721.34;5132004;27;20496;-53
2024/01/07 04:54:54;;;;;;;0.30;0.23;;;;;;;8.90;100.00;93762.84;5131998;27;20609;-53
2024/01/07 04:57:24;;;;;;;0.40;0.40;;;;;;;8.94;100.00;93765.69;5132347;27;20490;-53
2024/01/07 04:59:54;;;;;;;0.40;0.40;;;;;;;9.05;100.00;93776.81;5132094;27;20480;-53
2024/01/07 05:02:23;;;;;;;0.30;0.20;;;;;;;9.13;100.00;93755.78;5132703;27;20442;-53
2024/01/07 05:04:51;;;;;;;0.50;0.40;;;;;;;8.88;100.00;93700.81;5132070;27;20521;-53
2024/01/07 05:07:20;;;;;;;0.73;0.73;;;;;;;9.09;100.00;93714.34;5131602;28;20434;-53
2024/01/07 05:09:49;;;;;;;0.30;0.20;;;;;;;8.91;100.00;93730.06;5105203;28;20821;-52
2024/01/07 05:12:17;;;;;;;1.37;0.60;;;;;;;8.29;100.00;93746.66;5132055;28;20491;-52
2024/01/07 05:14:47;;;;;;;0.83;0.30;;;;;;;8.17;100.00;93759.53;5132058;28;20473;-53
2024/01/07 05:17:16;;;;;;;0.50;0.40;;;;;;;8.30;100.00;93764.03;5131004;27;20495;-53
2024/01/07 05:19:44;;;;;;;0.60;0.60;;;;;;;8.32;100.00;93764.53;5120209;28;20484;-53
2024/01/07 05:22:13;;;;;;;0.60;0.60;;;;;;;8.29;100.00;93778.31;5131466;27;20438;-53
2024/01/07 05:24:42;;;;;;;0.53;0.43;;;;;;;8.33;100.00;93763.47;5132153;28;20438;-53
2024/01/07 05:27:11;;;;;;;0.50;0.50;;;;;;;8.29;100.00;93754.56;5131479;28;20445;-53
2024/01/07 05:29:40;;;;;;;0.40;0.30;;;;;;;8.17;100.00;93743.69;5131915;27;20438;-53
2024/01/07 05:32:10;;;;;;;1.23;0.80;;;;;;;8.16;100.00;93752.66;5131127;27;20442;-53
2024/01/07 05:34:39;;;;;;;0.30;0.20;;;;;;;8.14;100.00;93745.06;5132264;27;20805;-53
2024/01/07 05:37:07;;;;;;;0.40;0.40;;;;;;;8.13;100.00;93764.59;5131419;28;20437;-53
2024/01/07 05:39:36;;;;;;;1.23;1.23;;;;;;;8.25;100.00;93780.72;5131907;28;20482;-53
2024/01/07 05:42:05;;;;;;;0.40;0.30;;;;;;;7.98;100.00;93737.69;5131402;28;20497;-53
2024/01/07 05:44:33;;;;;;;2.30;0.30;;;;;;;8.25;100.00;93782.56;5131749;27;20499;-53
2024/01/07 05:47:03;;;;;;;0.40;0.30;;;;;;;7.98;100.00;93743.75;5131752;28;20919;-53
2024/01/07 05:49:33;;;;;;;0.30;0.20;;;;;;;8.35;100.00;93790.34;5131953;27;20490;-53
2024/01/07 05:52:02;;;;;;;0.40;0.33;;;;;;;8.39;100.00;93795.81;5131501;27;20474;-53
2024/01/07 05:54:30;;;;;;;0.70;0.50;;;;;;;8.31;100.00;93802.56;5131519;28;20434;-53
2024/01/07 05:57:00;;;;;;;0.40;0.37;;;;;;;8.27;100.00;93798.94;5131792;28;20964;-53
2024/01/07 05:59:28;;;;;;;0.40;0.30;;;;;;;8.30;100.00;93814.19;5131346;28;20613;-53
2024/01/07 06:02:00;;;;;;;0.40;0.30;;;;;;;8.32;100.00;93812.81;5131203;27;20438;-53
2024/01/07 06:04:28;;;;;;;0.40;0.33;;;;;;;8.41;100.00;93812.16;5131818;28;20442;-54
2024/01/07 06:06:59;;;;;;;0.50;0.40;;;;;;;8.17;100.00;93794.59;5131533;27;20438;-52
2024/01/07 06:09:28;;;;;;;0.90;0.90;;;;;;;8.40;100.00;93816.63;5135173;27;20442;-54
2024/01/07 06:11:57;;;;;;;0.43;0.40;;;;;;;8.31;100.00;93786.72;5135101;27;20442;-53
2024/01/07 06:14:25;;;;;;;1.20;0.43;;;;;;;8.37;100.00;93814.59;5134802;27;20878;-54
2024/01/07 06:16:54;;;;;;;1.10;1.10;;;;;;;7.96;100.00;93818.97;5134594;27;20434;-54
2024/01/07 06:19:23;;;;;;;0.40;0.30;;;;;;;7.87;100.00;93826.00;5134108;27;20505;-53
2024/01/07 06:21:51;;;;;;;0.40;0.30;;;;;;;7.92;100.00;93824.03;5135150;27;20502;-54
2024/01/07 06:24:21;;;;;;;0.30;0.20;;;;;;;8.22;100.00;93828.03;5133937;27;20827;-54
2024/01/07 06:26:50;;;;;;;0.50;0.30;;;;;;;8.55;100.00;93826.91;5133877;27;20435;-54
2024/01/07 06:29:19;;;;;;;5.93;0.50;;;;;;;8.87;100.00;93834.78;5114356;28;20440;-54
2024/01/07 06:31:48;;;;;;;0.37;0.30;;;;;;;8.89;100.00;93803.56;5127719;27;20474;-54
2024/01/07 06:34:17;;;;;;;0.43;0.40;;;;;;;9.17;100.00;93816.72;5127486;27;20439;-54
2024/01/07 06:36:46;;;;;;;0.50;0.47;;;;;;;9.40;100.00;93831.56;5108314;27;20457;-54
2024/01/07 06:39:14;;;;;;;0.40;0.40;;;;;;;9.28;100.00;93818.09;5134862;27;20557;-53
2024/01/07 06:41:44;;;;;;;0.60;0.60;;;;;;;9.46;100.00;93819.81;5134550;27;20789;-53
2024/01/07 06:44:13;;;;;;;0.73;0.70;;;;;;;9.45;100.00;93812.94;5134137;27;20434;-53
2024/01/07 06:46:42;;;;;;;1.47;1.10;;;;;;;9.71;100.00;93831.69;5134907;27;20516;-53
2024/01/07 06:49:10;;;;;;;12.07;0.80;;;;;;;9.72;100.00;93839.31;5134529;27;20803;-53
2024/01/07 06:51:39;;;;;;;0.70;0.70;;;;;;;9.88;100.00;93835.25;5134494;27;20447;-54
2024/01/07 06:54:09;;;;;;;4.73;1.20;;;;;;;10.05;100.00;93842.50;5134317;27;20435;-53
2024/01/07 06:56:42;;;;;;;1.37;1.27;;;;;;;10.04;100.00;93835.69;5134597;27;20478;-54
2024/01/07 06:59:12;;;;;;;1.03;1.03;;;;;;;9.93;100.00;93843.06;5120295;27;20462;-54
2024/01/07 07:01:41;;;;;;;1.20;1.10;;;;;;;10.01;100.00;93836.28;5133811;27;20495;-53
2024/01/07 07:04:10;;;;;;;0.97;0.90;;;;;;;9.98;100.00;93824.41;5134354;27;20495;-54
2024/01/07 07:06:38;;;;;;;0.93;0.93;;;;;;;9.99;100.00;93825.22;5134674;27;20811;-54
2024/01/07 07:09:07;;;;;;;0.80;0.60;;;;;;;10.04;100.00;93823.19;5133770;27;20938;-53
2024/01/07 07:11:36;;;;;;;0.60;0.60;;;;;;;10.06;100.00;93822.91;5133971;27;20913;-53
2024/01/07 07:14:06;;;;;;;1.03;0.90;;;;;;;10.00;100.00;93827.53;5133248;27;20840;-53
2024/01/07 07:16:36;;;;;;;0.80;0.80;;;;;;;9.91;100.00;93826.72;5124799;27;20862;-53
2024/01/07 07:19:04;;;;;;;1.07;0.97;;;;;;;9.93;100.00;93829.03;5131769;27;20798;-52
2024/01/07 07:21:33;;;;;;;0.60;0.57;;;;;;;9.91;100.00;93821.41;5134273;27;20442;-53
2024/01/07 07:24:01;;;;;;;1.00;0.90;;;;;;;9.92;100.00;93822.19;5133620;27;20441;-54
2024/01/07 07:26:31;;;;;;;2.10;1.20;;;;;;;9.95;100.00;93818.94;5133156;27;20861;-52
2024/01/07 07:29:00;;;;;;;2.63;1.60;;;;;;;10.00;100.00;93818.81;5134299;27;20492;-54
2024/01/07 07:31:28;;;;;;;0.40;0.40;;;;;;;10.06;100.00;93817.63;5130893;27;20978;-54
2024/01/07 07:33:59;;;;;;;1.10;1.03;;;;;;;10.05;100.00;93819.47;5129915;27;20966;-54
2024/01/07 07:36:28;;;;;;;0.70;0.70;;;;;;;10.07;100.00;93817.31;5129110;27;20496;-54
2024/01/07 07:38:56;;;;;;;0.90;0.90;;;;;;;10.06;100.00;93797.22;5129854;27;20900;-53
2024/01/07 07:41:25;;;;;;;1.30;1.20;;;;;;;9.98;100.00;93816.47;5129372;27;20509;-53
2024/01/07 07:43:54;;;;;;;1.97;0.90;;;;;;;10.01;100.00;93804.50;5129852;27;20449;-54
2024/01/07 07:46:23;;;;;;;1.30;1.03;;;;;;;9.83;100.00;93789.59;5129814;27;21015;-52
2024/01/07 07:48:52;;;;;;;0.67;0.60;;;;;;;9.90;100.00;93819.84;5131323;27;20446;-53
2024/01/07 07:51:22;;;;;;;2.07;1.87;;;;;;;9.75;100.00;93806.19;5131538;27;20439;-53
2024/01/07 07:53:51;;;;;;;0.87;0.57;;;;;;;9.95;100.00;93813.63;5132646;27;21028;-54
2024/01/07 07:56:19;;;;;;;1.27;0.83;;;;;;;10.05;100.00;93818.69;5132997;27;20505;-52
2024/01/07 07:58:48;;;;;;;2.77;1.23;;;;;;;10.02;100.00;93828.00;5132959;27;20427;-53
2024/01/07 08:01:18;;;;;;;2.57;2.47;;;;;;;9.93;100.00;93832.47;5133044;27;20561;-53
2024/01/07 08:03:47;;;;;;;1.37;0.87;;;;;;;9.74;100.00;93810.69;5133613;27;20442;-53
2024/01/07 08:06:16;;;;;;;2.83;1.30;;;;;;;9.82;100.00;93825.84;5132889;27;20434;-52
2024/01/07 08:08:46;;;;;;;1.93;1.47;;;;;;;9.73;100.00;93826.88;5133175;27;20426;-53
2024/01/07 08:11:15;;;;;;;1.13;1.13;;;;;;;10.02;100.00;93824.59;5132015;27;20441;-52
2024/01/07 08:13:43;;;;;;;1.30;1.13;;;;;;;9.94;100.00;93814.75;5132930;27;20435;-52
2024/01/07 08:16:12;;;;;;;6.00;2.20;;;;;;;9.89;100.00;93817.50;5132656;27;20437;-53
2024/01/07 08:18:41;;;;;;;3.00;2.70;;;;;;;9.79;100.00;93815.09;5132745;27;20435;-54
2024/01/07 08:21:10;;;;;;;2.13;2.00;;;;;;;9.89;100.00;93814.88;5132350;27;20470;-54
2024/01/07 08:23:38;;;;;;;2.73;2.53;;;;;;;9.43;100.00;93743.72;5132481;27;20443;-53
2024/01/07 08:26:08;;;;;;;6.13;1.90;;;;;;;10.00;100.00;93816.97;5132476;27;20462;-53
2024/01/07 08:28:37;;;;;;;1.47;1.37;;;;;;;9.98;100.00;93816.47;5132731;27;20439;-53
2024/01/07 08:31:07;;;;;;;1.87;1.77;;;;;;;9.96;100.00;93817.88;5132705;27;20821;-53
2024/01/07 08:33:35;;;;;;;2.70;2.60;;;;;;;9.96;100.00;93817.88;5132490;27;20467;-54
2024/01/07 08:36:05;;;;;;;2.03;1.93;;;;;;;9.95;100.00;93821.59;5132674;27;20434;-54
2024/01/07 08:38:33;;;;;;;3.40;3.00;;;;;;;9.77;100.00;93798.72;5132051;27;20445;-53
2024/01/07 08:41:02;;;;;;;4.10;2.50;;;;;;;10.00;100.00;93821.47;5132801;27;20485;-54
2024/01/07 08:43:32;;;;;;;8.17;4.00;;;;;;;10.07;100.00;93819.16;5132603;27;20544;-54
2024/01/07 08:46:01;;;;;;;5.13;4.63;;;;;;;10.12;100.00;93824.38;5132809;27;20449;-54
2024/01/07 08:48:30;;;;;;;4.23;3.63;;;;;;;10.16;100.00;93822.69;5132394;27;20430;-53
2024/01/07 08:50:59;;;;;;;4.03;3.83;;;;;;;10.19;100.00;93828.16;5131557;27;20439;-53
2024/01/07 08:53:27;;;;;;;2.90;2.60;;;;;;;10.18;100.00;93823.97;5131487;27;20454;-54
2024/01/07 08:55:56;;;;;;;2.37;2.27;;;;;;;10.21;100.00;93825.22;5132530;27;20517;-53
2024/01/07 08:58:24;;;;;;;3.20;3.00;;;;;;;10.23;100.00;93819.59;5132072;27;20430;-53
2024/01/07 09:00:54;;;;;;;2.27;2.07;;;;;;;10.36;100.00;93816.09;5132095;27;20576;-53
2024/01/07 09:03:23;;;;;;;2.57;2.27;;;;;;;9.95;100.00;93755.44;5132073;28;20849;-53
2024/01/07 09:05:52;;;;;;;0.70;0.70;;;;;;;10.40;100.00;93817.09;5132099;27;20445;-54
2024/01/07 09:08:21;;;;;;;1.30;1.30;;;;;;;10.52;100.00;93815.44;5132215;28;20450;-54
2024/01/07 09:10:50;;;;;;;1.67;1.57;;;;;;;10.43;100.00;93805.84;5132007;28;20885;-54
2024/01/07 09:13:19;;;;;;;5.03;1.63;;;;;;;9.92;100.00;93780.63;5132059;28;20517;-53
2024/01/07 09:15:47;;;;;;;16.07;2.50;;;;;;;10.34;100.00;93802.41;5132281;27;20434;-54
2024/01/07 09:18:18;;;;;;;1.97;1.87;;;;;;;10.50;100.00;93806.97;5132404;28;20463;-54
2024/01/07 09:20:47;;;;;;;5.47;1.53;;;;;;;10.55;100.00;93801.53;5131398;27;20470;-54
2024/01/07 09:23:16;;;;;;;1.37;1.27;;;;;;;10.58;100.00;93781.63;5131617;27;20443;-54
2024/01/07 09:28:31;;;;;;;1.60;1.50;;;;;;;10.64;100.00;93783.06;5131721;28;20434;-55
2024/01/07 09:30:59;;;;;;;1.90;1.80;;;;;;;10.72;100.00;93777.00;5131696;28;20442;-55
2024/01/07 09:33:30;;;;;;;1.73;1.63;;;;;;;10.64;100.00;93785.69;5131010;27;20470;-54
2024/01/07 09:35:59;;;;;;;1.47;1.03;;;;;;;10.54;100.00;93780.69;5131919;27;20444;-55
2024/01/07 09:38:42;;;;;;;1.60;1.53;;;;;;;10.53;100.00;93782.53;5131431;28;20437;-54
2024/01/07 09:41:11;;;;;;;0.50;0.50;;;;;;;10.52;100.00;93767.75;5131766;27;20458;-55
2024/01/07 09:43:39;;;;;;;1.00;0.43;;;;;;;10.53;100.00;93765.84;5133799;27;20445;-54
2024/01/07 09:46:08;;;;;;;0.63;0.63;;;;;;;10.63;100.00;93770.88;5135913;27;20430;-54
2024/01/07 09:48:38;;;;;;;0.80;0.50;;;;;;;10.79;100.00;93766.75;5135530;27;20434;-55
2024/01/07 09:51:10;;;;;;;0.40;0.40;;;;;;;10.81;100.00;93756.59;5135561;27;20521;-54
2024/01/07 09:53:41;;;;;;;0.40;0.30;;;;;;;10.73;100.00;93741.44;5135897;27;20510;-54
2024/01/07 09:56:14;;;;;;;1.27;1.17;;;;;;;10.76;100.00;93757.53;5135354;27;20835;-54
2024/01/07 09:58:45;;;;;;;0.70;0.70;;;;;;;10.73;100.00;93747.53;5135560;27;20860;-55
2024/01/07 10:01:14;;;;;;;2.93;0.67;;;;;;;10.56;100.00;93731.59;5134967;27;20465;-54
2024/01/07 10:03:44;;;;;;;0.50;0.40;;;;;;;10.30;100.00;93745.81;5135746;27;20813;-54
2024/01/07 10:06:13;;;;;;;2.40;2.23;;;;;;;10.03;100.00;93725.59;5135445;27;20488;-54
2024/01/07 10:08:42;;;;;;;4.00;2.03;;;;;;;10.33;100.00;93745.22;5135262;27;20438;-54
2024/01/07 10:11:11;;;;;;;2.27;2.07;;;;;;;10.33;100.00;93738.06;5135340;27;20435;-54
2024/01/07 10:13:39;;;;;;;5.57;1.80;;;;;;;10.38;100.00;93737.13;5135907;27;20860;-54
2024/01/07 10:16:09;;;;;;;1.57;1.47;;;;;;;10.51;100.00;93744.19;5135665;27;20499;-54
2024/01/07 10:18:38;;;;;;;0.80;0.80;;;;;;;10.63;100.00;93747.03;5135234;27;20517;-54
2024/01/07 10:21:09;;;;;;;0.53;0.53;;;;;;;10.74;100.00;93740.38;5107820;27;20523;-54
2024/01/07 10:23:37;;;;;;;1.03;0.73;;;;;;;10.67;100.00;93729.47;5135155;27;20479;-55
2024/01/07 10:26:06;;;;;;;2.10;0.70;;;;;;;10.14;100.00;93671.34;5134775;27;20816;-54
2024/01/07 10:28:50;;;;;;;0.73;0.73;;;;;;;10.41;100.00;93723.28;5134501;27;20517;-54
2024/01/07 10:31:19;;;;;;;0.40;0.30;;;;;;;10.51;100.00;93728.31;5135148;27;20463;-55
2024/01/07 10:33:49;;;;;;;0.67;0.67;;;;;;;10.51;100.00;93712.41;5134716;27;20883;-54
2024/01/07 10:36:21;;;;;;;1.03;0.87;;;;;;;10.64;100.00;93707.00;5135172;27;20434;-54
2024/01/07 10:38:50;;;;;;;5.77;1.43;;;;;;;10.78;100.00;93712.94;5134991;27;20439;-54
2024/01/07 10:41:19;;;;;;;2.70;2.60;;;;;;;10.62;100.00;93708.41;5134891;27;20493;-55
2024/01/07 10:43:49;;;;;;;1.57;1.10;;;;;;;10.66;100.00;93709.34;5107842;27;20435;-55
2024/01/07 10:46:18;;;;;;;18.70;2.23;;;;;;;10.69;100.00;93706.09;5134327;27;20441;-55
2024/01/07 10:48:54;;;;;;;3.30;1.70;;;;;;;10.46;100.00;93686.06;5134948;27;20930;-55
2024/01/07 10:51:28;;;;;;;2.50;2.30;;;;;;;10.47;100.00;93691.06;5133651;27;20463;-56
2024/01/07 10:53:57;;;;;;;5.20;1.50;;;;;;;10.63;100.00;93683.47;5093410;28;20432;-54
2024/01/07 10:56:34;;;;;;;1.60;1.33;;;;;;;10.53;100.00;93675.81;5094221;28;20442;-54
2024/01/07 10:59:03;;;;;;;3.00;1.00;;;;;;;10.54;100.00;93677.38;5093578;28;20439;-54
2024/01/07 11:01:33;;;;;;;0.97;0.97;;;;;;;10.28;100.00;93663.28;5092509;28;20468;-54
2024/01/07 11:04:07;;;;;;;1.83;0.50;;;;;;;10.40;100.00;93666.88;5093382;28;20437;-54
2024/01/07 11:06:44;;;;;;;0.90;0.70;;;;;;;10.39;100.00;93662.69;5067821;28;20442;-54
2024/01/07 11:09:22;;;;;;;0.83;0.77;;;;;;;10.57;100.00;93651.06;5093616;28;20432;-54
2024/01/07 11:11:51;;;;;;;1.50;0.90;;;;;;;10.90;100.00;93655.94;5093282;28;20440;-54
2024/01/07 11:14:39;;;;;;;11.03;2.10;;;;;;;10.67;100.00;93655.28;5093268;28;20841;-53
2024/01/07 11:17:08;;;;;;;1.23;1.23;;;;;;;10.92;100.00;93643.13;5093183;28;20444;-52
2024/01/07 11:19:37;;;;;;;0.60;0.60;;;;;;;10.84;100.00;93645.47;5093167;28;20433;-53
2024/01/07 11:22:28;;;;;;;1.23;1.23;;;;;;;10.75;100.00;93641.25;5093082;28;20545;-53
2024/01/07 11:24:58;;;;;;;1.33;0.70;;;;;;;10.68;100.00;93640.91;5093191;28;20543;-53
2024/01/07 11:27:28;;;;;;;5.60;0.67;;;;;;;10.59;100.00;93645.44;5092806;28;20440;-53
2024/01/07 11:29:57;;;;;;;0.70;0.70;;;;;;;10.79;100.00;93642.19;5092550;28;20506;-53
2024/01/07 11:32:30;;;;;;;1.80;1.70;;;;;;;10.75;100.00;93635.97;5092469;28;20940;-54
2024/01/07 11:34:59;;;;;;;0.87;0.60;;;;;;;10.82;100.00;93634.41;5092815;28;20437;-53
2024/01/07 11:37:30;;;;;;;8.57;1.87;;;;;;;10.24;100.00;93599.56;5092897;28;20444;-53
2024/01/07 11:39:59;;;;;;;4.97;1.90;;;;;;;10.72;100.00;93628.63;5092699;28;20864;-54
2024/01/07 11:42:28;;;;;;;1.70;0.90;;;;;;;10.95;100.00;93630.06;5092569;28;20855;-53
2024/01/07 11:44:57;;;;;;;1.67;0.83;;;;;;;10.78;100.00;93627.38;5092439;28;20943;-53